Blaydon, United Kingdom
Current Conditions -  °F | °C
As of 8:20 PM on Friday 21 Nov 2014 (Local Time) from EGNT Reporting Station
Light Rain Light Rain  
Wind Chill:   Ceiling: 4500
Heat Index:   Visibility: 5mi
Dew Point:   Wind: 12mph
Humidity: 87%   Direction: 140°SE
Pressure: 29.91"   Gusts: NA
Location:  54.96°N, 1.71°W
Report Text: EGNT 212020Z 14010KT 110V180 8000 -RA FEW015 BKN045 08/06 Q1013
Loading
Personal Weather Stations






























Interactive Weather Map New forecast layout! Learn more

10-Day Weather Forecast

Advertisements
Track Severe Weather on mobile